PWSweather.com
Personal Weather Stations
Station Observations
KAZPHOEN90
RayThunderhill, Phoenix, AZ

RayThunderhillPhoenix, AZ

Lat: 33.312, Lon: -112.029

Elevation: 1260

Station Type: Davis Vantage VUE

Latest ConditionsUpdated 8:15:01 AM MST Friday, Oct 24, 2014
Currently Today's Max Today's Min Today's Average
Temperature 75.2°F24.0°C 75.2°F24.0°C 64.0°F17.8°C 68.6°F20.3°C
Dew Point 52.4°F11.3°C 54.2°F12.3°C 47.9°F8.8°C 49.8°F9.9°C
Winds Calm Calm 0.7 mph NW1.1 kmh NW - 0.0 mph 0.0 kmh
Wind Gusts -- 3.0 mph4.8 kmh - -
Humidity 45% 64% 41% 52%
Pressure 29.96 in1014.6 mb 29.96 in1014.6 mb 29.89 in1012.2 mb -
Hour Temp Dew Point Humidity Winds Wind Gusts Pressure Precip Precip Rate Daily Precip Total
08:15 AM 75.2°F24.0°C 52.4°F11.3°C 45% Calm Calm -- 29.96 in1014.6 mb 0.00 in0.0 mm 0.00 in/hr0.0 mm/hr 0.00 in0.0 mm
08:00 AM 72.3°F22.4°C 54.2°F12.3°C 53% Calm Calm -- 29.96 in1014.6 mb 0.00 in0.0 mm 0.00 in/hr0.0 mm/hr 0.00 in0.0 mm
07:45 AM 69.4°F20.8°C 53.0°F11.7°C 56% Calm Calm -- 29.95 in1014.2 mb 0.00 in0.0 mm 0.00 in/hr0.0 mm/hr 0.00 in0.0 mm
07:30 AM 64.8°F18.2°C 52.3°F11.3°C 64% Calm Calm -- 29.95 in1014.2 mb 0.00 in0.0 mm 0.00 in/hr0.0 mm/hr 0.00 in0.0 mm
07:15 AM 64.0°F17.8°C 51.5°F10.8°C 64% Calm Calm -- 29.94 in1013.9 mb 0.00 in0.0 mm 0.00 in/hr0.0 mm/hr 0.00 in0.0 mm
07:00 AM 64.1°F17.8°C 50.3°F10.2°C 61% Calm Calm -- 29.94 in1013.9 mb 0.00 in0.0 mm 0.00 in/hr0.0 mm/hr 0.00 in0.0 mm
06:45 AM 65.3°F18.5°C 49.7°F9.8°C 57% Calm Calm -- 29.93 in1013.5 mb 0.00 in0.0 mm 0.00 in/hr0.0 mm/hr 0.00 in0.0 mm
06:30 AM 65.9°F18.8°C 50.2°F10.1°C 57% Calm Calm -- 29.93 in1013.5 mb 0.00 in0.0 mm 0.00 in/hr0.0 mm/hr 0.00 in0.0 mm
06:15 AM 66.7°F19.3°C 49.0°F9.4°C 53% Calm Calm -- 29.92 in1013.2 mb 0.00 in0.0 mm 0.00 in/hr0.0 mm/hr 0.00 in0.0 mm
06:00 AM 67.6°F19.8°C 48.3°F9.1°C 50% Calm Calm -- 29.92 in1013.2 mb 0.00 in0.0 mm 0.00 in/hr0.0 mm/hr 0.00 in0.0 mm
05:45 AM 67.7°F19.8°C 48.9°F9.4°C 51% Calm Calm -- 29.92 in1013.2 mb 0.00 in0.0 mm 0.00 in/hr0.0 mm/hr 0.00 in0.0 mm
05:30 AM 69.0°F20.6°C 48.5°F9.2°C 48% Calm Calm -- 29.91 in1012.9 mb 0.00 in0.0 mm 0.00 in/hr0.0 mm/hr 0.00 in0.0 mm
05:15 AM 69.6°F20.9°C 48.5°F9.2°C 47% Calm Calm -- 29.91 in1012.9 mb 0.00 in0.0 mm 0.00 in/hr0.0 mm/hr 0.00 in0.0 mm
05:00 AM 70.1°F21.2°C 48.4°F9.1°C 46% Calm Calm 1.0 mph1.6 kmh 29.91 in1012.9 mb 0.00 in0.0 mm 0.00 in/hr0.0 mm/hr 0.00 in0.0 mm
04:45 AM 70.3°F21.3°C 47.9°F8.8°C 45% 0.2 mph NNW0.3 kmh NNW 1.0 mph1.6 kmh 29.90 in1012.5 mb 0.00 in0.0 mm 0.00 in/hr0.0 mm/hr 0.00 in0.0 mm
04:30 AM 70.3°F21.3°C 48.5°F9.2°C 46% 0.1 mph WNW0.2 kmh WNW -- 29.90 in1012.5 mb 0.00 in0.0 mm 0.00 in/hr0.0 mm/hr 0.00 in0.0 mm
04:15 AM 70.3°F21.3°C 49.1°F9.5°C 47% Calm Calm -- 29.90 in1012.5 mb 0.00 in0.0 mm 0.00 in/hr0.0 mm/hr 0.00 in0.0 mm
04:00 AM 70.6°F21.4°C 49.4°F9.7°C 47% Calm Calm -- 29.89 in1012.2 mb 0.00 in0.0 mm 0.00 in/hr0.0 mm/hr 0.00 in0.0 mm
03:45 AM 70.5°F21.4°C 49.3°F9.6°C 47% Calm Calm -- 29.89 in1012.2 mb 0.00 in0.0 mm 0.00 in/hr0.0 mm/hr 0.00 in0.0 mm
03:30 AM 70.0°F21.1°C 48.8°F9.3°C 47% Calm Calm -- 29.90 in1012.5 mb 0.00 in0.0 mm 0.00 in/hr0.0 mm/hr 0.00 in0.0 mm
03:15 AM 71.4°F21.9°C 49.0°F9.4°C 45% Calm Calm -- 29.89 in1012.2 mb 0.00 in0.0 mm 0.00 in/hr0.0 mm/hr 0.00 in0.0 mm
03:00 AM 72.5°F22.5°C 48.1°F8.9°C 42% Calm Calm -- 29.89 in1012.2 mb 0.00 in0.0 mm 0.00 in/hr0.0 mm/hr 0.00 in0.0 mm
02:45 AM 73.4°F23.0°C 48.2°F9.0°C 41% 0.7 mph NW1.1 kmh NW 3.0 mph4.8 kmh 29.89 in1012.2 mb 0.00 in0.0 mm 0.00 in/hr0.0 mm/hr 0.00 in0.0 mm
02:30 AM 73.4°F23.0°C 48.2°F9.0°C 41% 0.3 mph NW0.5 kmh NW 2.0 mph3.2 kmh 29.90 in1012.5 mb 0.00 in0.0 mm 0.00 in/hr0.0 mm/hr 0.00 in0.0 mm
02:15 AM 71.5°F21.9°C 48.5°F9.2°C 44% 0.1 mph NNW0.2 kmh NNW 1.0 mph1.6 kmh 29.90 in1012.5 mb 0.00 in0.0 mm 0.00 in/hr0.0 mm/hr 0.00 in0.0 mm
02:00 AM 68.5°F20.3°C 49.6°F9.8°C 51% Calm Calm -- 29.90 in1012.5 mb 0.00 in0.0 mm 0.00 in/hr0.0 mm/hr 0.00 in0.0 mm
01:45 AM 65.5°F18.6°C 50.3°F10.2°C 58% Calm Calm -- 29.90 in1012.5 mb 0.00 in0.0 mm 0.00 in/hr0.0 mm/hr 0.00 in0.0 mm
01:30 AM 64.7°F18.2°C 50.5°F10.3°C 60% Calm Calm -- 29.90 in1012.5 mb 0.00 in0.0 mm 0.00 in/hr0.0 mm/hr 0.00 in0.0 mm
01:15 AM 65.4°F18.6°C 49.8°F9.9°C 57% Calm Calm -- 29.90 in1012.5 mb 0.00 in0.0 mm 0.00 in/hr0.0 mm/hr 0.00 in0.0 mm
01:00 AM 66.1°F18.9°C 50.4°F10.2°C 57% Calm Calm -- 29.90 in1012.5 mb 0.00 in0.0 mm 0.00 in/hr0.0 mm/hr 0.00 in0.0 mm
12:45 AM 65.9°F18.8°C 50.3°F10.2°C 57% Calm Calm -- 29.90 in1012.5 mb 0.00 in0.0 mm 0.00 in/hr0.0 mm/hr 0.00 in0.0 mm
12:30 AM 66.2°F19.0°C 50.5°F10.3°C 57% Calm Calm -- 29.90 in1012.5 mb 0.00 in0.0 mm 0.00 in/hr0.0 mm/hr 0.00 in0.0 mm
12:15 AM 66.4°F19.1°C 50.2°F10.1°C 56% Calm Calm -- 29.90 in1012.5 mb 0.00 in0.0 mm 0.00 in/hr0.0 mm/hr 0.00 in0.0 mm
12:00 AM 67.7°F19.8°C 50.5°F10.3°C 54% Calm Calm -- 29.89 in1012.2 mb 0.00 in0.0 mm 0.00 in/hr0.0 mm/hr 0.00 in0.0 mm